Time;durP1;ratioP1;P1;durP2;ratioP2;P2;SDS_P1;SDS_P2;PMS_P1;PMS_P2;Temp;Humidity;BMP_temperature;BMP_pressure;BME280_temperature;BME280_humidity;BME280_pressure;Samples;Min_cycle;Max_cycle;Signal;HPM_P1;HPM_P2
2021/10/23 00:02:24;;;;;;;11.63;6.13;;;;;;;;;;5032531;28;20198;-76
2021/10/23 00:04:50;;;;;;;11.70;5.70;;;;;;;;;;5034307;28;20782;-76
2021/10/23 00:07:16;;;;;;;10.25;6.40;;;;;;;;;;5036782;28;20173;-76
2021/10/23 00:09:42;;;;;;;13.35;6.15;;;;;;;;;;5036856;28;20184;-76
2021/10/23 00:12:08;;;;;;;12.48;6.70;;;;;;;;;;5036411;28;20698;-77
2021/10/23 00:14:34;;;;;;;12.40;6.30;;;;;;;;;;5035656;28;20670;-75
2021/10/23 00:17:00;;;;;;;12.80;7.00;;;;;;;;;;5036773;28;20175;-77
2021/10/23 00:19:25;;;;;;;9.95;6.40;;;;;;;;;;5036575;28;20444;-75
2021/10/23 00:21:51;;;;;;;13.93;6.50;;;;;;;;;;5036446;28;20580;-76
2021/10/23 00:24:17;;;;;;;9.63;6.07;;;;;;;;;;5036767;28;20432;-76
2021/10/23 00:26:43;;;;;;;13.77;7.20;;;;;;;;;;5035396;28;20409;-76
2021/10/23 00:29:09;;;;;;;15.70;7.30;;;;;;;;;;5035141;28;20417;-75
2021/10/23 00:31:35;;;;;;;12.53;8.13;;;;;;;;;;5034856;28;20203;-76
2021/10/23 00:34:01;;;;;;;12.33;7.47;;;;;;;;;;5035180;28;20447;-76
2021/10/23 00:36:27;;;;;;;15.93;8.03;;;;;;;;;;5036847;28;20498;-75
2021/10/23 00:38:53;;;;;;;11.33;7.63;;;;;;;;;;5036652;28;20923;-76
2021/10/23 00:41:19;;;;;;;14.63;7.30;;;;;;;;;;5035818;28;20456;-76
2021/10/23 00:43:47;;;;;;;8.87;7.33;;;;;;;;;;5036317;28;20184;-76
2021/10/23 00:46:13;;;;;;;13.60;8.60;;;;;;;;;;5036402;28;20816;-76
2021/10/23 00:48:40;;;;;;;12.90;7.90;;;;;;;;;;5036345;28;20237;-77
2021/10/23 00:51:06;;;;;;;20.75;8.95;;;;;;;;;;5035801;28;20549;-76
2021/10/23 00:53:32;;;;;;;12.50;7.80;;;;;;;;;;5035977;28;20182;-77
2021/10/23 00:55:58;;;;;;;13.77;7.82;;;;;;;;;;5036120;28;20416;-77
2021/10/23 00:58:24;;;;;;;12.85;7.88;;;;;;;;;;5036033;28;20257;-76
2021/10/23 01:00:50;;;;;;;16.63;9.02;;;;;;;;;;5035883;28;20206;-77
2021/10/23 01:03:16;;;;;;;23.05;10.52;;;;;;;;;;5034663;28;20651;-76
2021/10/23 01:05:43;;;;;;;19.85;9.35;;;;;;;;;;5036005;28;20211;-77
2021/10/23 01:08:09;;;;;;;17.02;12.55;;;;;;;;;;5034583;28;20182;-76
2021/10/23 01:10:35;;;;;;;20.40;12.30;;;;;;;;;;5035832;28;20213;-76
2021/10/23 01:13:01;;;;;;;25.73;12.75;;;;;;;;;;5035427;28;20241;-77
2021/10/23 01:15:31;;;;;;;19.50;12.43;;;;;;;;;;5035406;28;20705;-77
2021/10/23 01:17:57;;;;;;;21.02;13.90;;;;;;;;;;5034876;28;20439;-76
2021/10/23 01:20:24;;;;;;;17.75;12.82;;;;;;;;;;5035592;28;20224;-76
2021/10/23 01:22:51;;;;;;;22.58;13.00;;;;;;;;;;5035216;28;20271;-75
2021/10/23 01:25:17;;;;;;;23.60;14.52;;;;;;;;;;5035610;28;20546;-76
2021/10/23 01:27:44;;;;;;;22.05;15.88;;;;;;;;;;5035241;28;20182;-77
2021/10/23 01:30:11;;;;;;;22.40;14.82;;;;;;;;;;5034189;28;20224;-77
2021/10/23 01:32:38;;;;;;;26.35;14.70;;;;;;;;;;5034994;28;20193;-77
2021/10/23 01:35:04;;;;;;;26.63;15.80;;;;;;;;;;5035401;28;20174;-75
2021/10/23 01:37:34;;;;;;;27.85;16.88;;;;;;;;;;5035266;28;20177;-77
2021/10/23 01:40:00;;;;;;;23.42;17.23;;;;;;;;;;5033977;28;20623;-77
2021/10/23 01:42:26;;;;;;;32.00;16.90;;;;;;;;;;5033671;28;20202;-75
2021/10/23 01:44:52;;;;;;;31.77;17.20;;;;;;;;;;5035191;28;20170;-77
2021/10/23 01:47:21;;;;;;;25.33;16.10;;;;;;;;;;5035146;28;20885;-77
2021/10/23 01:49:47;;;;;;;28.05;14.35;;;;;;;;;;5034961;28;20870;-76
2021/10/23 01:52:13;;;;;;;22.13;15.07;;;;;;;;;;5034602;28;20242;-78
2021/10/23 01:54:39;;;;;;;19.77;15.07;;;;;;;;;;5035284;28;20178;-76
2021/10/23 01:57:05;;;;;;;26.83;16.03;;;;;;;;;;5033914;28;20180;-76
2021/10/23 01:59:31;;;;;;;22.50;15.50;;;;;;;;;;5033892;28;20459;-77
2021/10/23 02:01:57;;;;;;;23.47;15.43;;;;;;;;;;5034239;28;20563;-78
2021/10/23 02:04:23;;;;;;;21.17;15.15;;;;;;;;;;5034913;28;20417;-75
2021/10/23 02:06:49;;;;;;;21.07;14.60;;;;;;;;;;5033622;28;20178;-77
2021/10/23 02:09:15;;;;;;;24.00;14.10;;;;;;;;;;5034811;28;20908;-77
2021/10/23 02:11:41;;;;;;;20.50;13.60;;;;;;;;;;5033035;28;20444;-77
2021/10/23 02:14:07;;;;;;;22.27;13.97;;;;;;;;;;5034439;28;20413;-77
2021/10/23 02:16:33;;;;;;;19.45;14.30;;;;;;;;;;5034655;28;20455;-77
2021/10/23 02:18:59;;;;;;;23.20;15.32;;;;;;;;;;5034597;28;20694;-77
2021/10/23 02:21:25;;;;;;;20.63;14.50;;;;;;;;;;5032785;28;20210;-77
2021/10/23 02:23:51;;;;;;;22.80;14.90;;;;;;;;;;5034382;28;20404;-77
2021/10/23 02:26:17;;;;;;;21.13;14.73;;;;;;;;;;5032980;28;20463;-77
2021/10/23 02:28:43;;;;;;;28.05;16.58;;;;;;;;;;5033984;28;20416;-77
2021/10/23 02:31:09;;;;;;;25.20;14.23;;;;;;;;;;5033890;28;20185;-76
2021/10/23 02:33:35;;;;;;;20.65;13.38;;;;;;;;;;5034266;28;20226;-76
2021/10/23 02:36:01;;;;;;;24.43;14.17;;;;;;;;;;5032887;28;20186;-77
2021/10/23 02:38:27;;;;;;;27.00;15.23;;;;;;;;;;5033967;28;20409;-77
2021/10/23 02:40:53;;;;;;;24.50;14.18;;;;;;;;;;5034190;28;20230;-76
2021/10/23 02:43:19;;;;;;;21.58;14.18;;;;;;;;;;5034105;28;20191;-77
2021/10/23 02:45:45;;;;;;;24.42;13.55;;;;;;;;;;5034266;28;20182;-78
2021/10/23 02:48:11;;;;;;;20.23;14.20;;;;;;;;;;5034100;28;20184;-77
2021/10/23 02:50:37;;;;;;;27.10;14.95;;;;;;;;;;5034009;28;20423;-76
2021/10/23 02:53:03;;;;;;;23.98;14.73;;;;;;;;;;5033505;28;20204;-77
2021/10/23 02:55:30;;;;;;;22.75;14.73;;;;;;;;;;5033964;28;20187;-78
2021/10/23 02:57:56;;;;;;;22.58;13.27;;;;;;;;;;5033886;28;20183;-78
2021/10/23 03:00:22;;;;;;;27.77;15.65;;;;;;;;;;5033553;28;20213;-75
2021/10/23 03:02:49;;;;;;;20.93;14.20;;;;;;;;;;5033261;28;20194;-77
2021/10/23 03:05:15;;;;;;;22.95;13.70;;;;;;;;;;5033767;28;20894;-76
2021/10/23 03:07:41;;;;;;;27.70;15.45;;;;;;;;;;5033574;28;20588;-77
2021/10/23 03:10:08;;;;;;;17.70;13.93;;;;;;;;;;5033749;28;20321;-77
2021/10/23 03:12:34;;;;;;;24.70;16.27;;;;;;;;;;5033128;28;20195;-77
2021/10/23 03:15:00;;;;;;;27.52;15.50;;;;;;;;;;5033704;28;20175;-78
2021/10/23 03:17:26;;;;;;;28.70;16.15;;;;;;;;;;5033511;28;20180;-76
2021/10/23 03:19:52;;;;;;;30.13;16.07;;;;;;;;;;5033572;28;20634;-77
2021/10/23 03:22:18;;;;;;;33.87;15.60;;;;;;;;;;5032790;28;20472;-76
2021/10/23 03:24:44;;;;;;;28.60;16.95;;;;;;;;;;5033232;28;20499;-77
2021/10/23 03:27:10;;;;;;;28.80;16.27;;;;;;;;;;5033351;28;20249;-78
2021/10/23 03:29:36;;;;;;;25.97;15.77;;;;;;;;;;5032136;28;20188;-74
2021/10/23 03:32:02;;;;;;;29.52;15.85;;;;;;;;;;5032819;28;20510;-77
2021/10/23 03:34:28;;;;;;;29.00;16.70;;;;;;;;;;5033069;28;20642;-76
2021/10/23 03:36:54;;;;;;;26.30;16.40;;;;;;;;;;5031823;28;20289;-76
2021/10/23 03:39:20;;;;;;;26.02;15.98;;;;;;;;;;5031343;28;20405;-76
2021/10/23 03:41:47;;;;;;;26.40;15.98;;;;;;;;;;5032865;28;20225;-76
2021/10/23 03:44:12;;;;;;;28.60;17.00;;;;;;;;;;5033287;28;20587;-76
2021/10/23 03:46:38;;;;;;;25.33;16.30;;;;;;;;;;5033142;28;20189;-78
2021/10/23 03:49:05;;;;;;;33.17;17.77;;;;;;;;;;5031881;28;20436;-77
2021/10/23 03:51:31;;;;;;;24.85;17.83;;;;;;;;;;5031463;28;20818;-76
2021/10/23 03:53:57;;;;;;;23.23;16.30;;;;;;;;;;5015409;28;20194;-77
2021/10/23 03:56:23;;;;;;;29.70;17.90;;;;;;;;;;5033073;28;20417;-76
2021/10/23 03:58:49;;;;;;;29.90;17.70;;;;;;;;;;5032944;28;20421;-75
2021/10/23 04:01:18;;;;;;;30.30;17.88;;;;;;;;;;5032569;28;20468;-75
2021/10/23 04:03:44;;;;;;;35.60;17.92;;;;;;;;;;5032946;28;20181;-75
2021/10/23 04:06:10;;;;;;;27.37;15.73;;;;;;;;;;5032897;28;20170;-77
2021/10/23 04:08:36;;;;;;;29.83;17.00;;;;;;;;;;5032999;28;20401;-76
2021/10/23 04:11:02;;;;;;;31.77;17.70;;;;;;;;;;5032361;28;20182;-78
2021/10/23 04:13:28;;;;;;;22.90;15.80;;;;;;;;;;5031782;28;20184;-76
2021/10/23 04:15:54;;;;;;;20.63;15.80;;;;;;;;;;5031715;28;20451;-75
2021/10/23 04:18:20;;;;;;;30.75;16.83;;;;;;;;;;5032581;28;20205;-76
2021/10/23 04:20:46;;;;;;;23.80;15.17;;;;;;;;;;5032692;28;20658;-78
2021/10/23 04:23:12;;;;;;;23.57;17.40;;;;;;;;;;5032315;28;20420;-77
2021/10/23 04:25:38;;;;;;;25.92;17.67;;;;;;;;;;5031569;28;20405;-76
2021/10/23 04:28:04;;;;;;;31.67;18.37;;;;;;;;;;5032782;28;20174;-75
2021/10/23 04:30:30;;;;;;;30.63;17.50;;;;;;;;;;5032660;28;20510;-77
2021/10/23 04:32:56;;;;;;;32.85;18.17;;;;;;;;;;5032183;28;20205;-75
2021/10/23 04:35:23;;;;;;;29.43;17.80;;;;;;;;;;5032518;28;20175;-76
2021/10/23 04:37:49;;;;;;;42.88;19.48;;;;;;;;;;5032654;28;20540;-76
2021/10/23 04:40:15;;;;;;;26.20;17.40;;;;;;;;;;5032609;28;20240;-76
2021/10/23 04:42:41;;;;;;;29.33;17.73;;;;;;;;;;5032176;28;20421;-76
2021/10/23 04:45:07;;;;;;;28.80;16.95;;;;;;;;;;5032397;28;20416;-77
2021/10/23 04:47:33;;;;;;;31.25;18.48;;;;;;;;;;5031215;28;20547;-76
2021/10/23 04:49:59;;;;;;;29.03;16.90;;;;;;;;;;5032527;28;20202;-74
2021/10/23 04:52:25;;;;;;;29.90;17.90;;;;;;;;;;5034631;28;20463;-76
2021/10/23 04:54:51;;;;;;;42.72;19.95;;;;;;;;;;5035279;28;20412;-75
2021/10/23 04:57:17;;;;;;;39.20;20.13;;;;;;;;;;5036201;28;20894;-75
2021/10/23 04:59:43;;;;;;;33.97;20.60;;;;;;;;;;5036083;28;20500;-77
2021/10/23 05:02:09;;;;;;;32.53;20.27;;;;;;;;;;5035539;28;20304;-78
2021/10/23 05:04:35;;;;;;;37.40;19.50;;;;;;;;;;5035996;28;20261;-78
2021/10/23 05:07:01;;;;;;;30.58;18.65;;;;;;;;;;5035984;28;20746;-78
2021/10/23 05:09:27;;;;;;;44.38;21.50;;;;;;;;;;5035772;28;20663;-77
2021/10/23 05:11:53;;;;;;;40.47;22.10;;;;;;;;;;5035475;28;20237;-77
2021/10/23 05:14:19;;;;;;;35.67;19.53;;;;;;;;;;5035947;28;20906;-77
2021/10/23 05:16:45;;;;;;;28.48;18.90;;;;;;;;;;5035843;28;20492;-77
2021/10/23 05:19:11;;;;;;;32.97;21.03;;;;;;;;;;5035580;28;20217;-77
2021/10/23 05:21:37;;;;;;;39.08;19.55;;;;;;;;;;5035032;28;20469;-77
2021/10/23 05:24:03;;;;;;;29.13;17.27;;;;;;;;;;5035711;28;20183;-77
2021/10/23 05:26:29;;;;;;;37.33;19.88;;;;;;;;;;5035541;28;20421;-76
2021/10/23 05:28:55;;;;;;;35.53;20.43;;;;;;;;;;5034260;28;20251;-76
2021/10/23 05:31:24;;;;;;;40.03;20.17;;;;;;;;;;5035008;28;20425;-78
2021/10/23 05:33:50;;;;;;;30.90;19.30;;;;;;;;;;5035329;28;20417;-76
2021/10/23 05:36:16;;;;;;;31.47;19.80;;;;;;;;;;5035349;28;20221;-77
2021/10/23 05:38:42;;;;;;;32.40;19.05;;;;;;;;;;5034111;28;20481;-76
2021/10/23 05:41:08;;;;;;;26.75;18.45;;;;;;;;;;5033693;28;20664;-76
2021/10/23 05:43:34;;;;;;;42.92;20.88;;;;;;;;;;5033924;28;20580;-76
2021/10/23 05:46:00;;;;;;;30.60;19.33;;;;;;;;;;5035115;28;20225;-77
2021/10/23 05:48:26;;;;;;;36.67;20.52;;;;;;;;;;5033842;28;20416;-77
2021/10/23 05:50:52;;;;;;;37.78;20.95;;;;;;;;;;5033685;28;20182;-76
2021/10/23 05:53:18;;;;;;;42.40;22.20;;;;;;;;;;5034779;28;20560;-76
2021/10/23 05:55:44;;;;;;;43.58;22.02;;;;;;;;;;5034871;28;20836;-76
2021/10/23 05:58:10;;;;;;;45.23;23.77;;;;;;;;;;5034952;28;20246;-76
2021/10/23 06:00:37;;;;;;;41.55;21.40;;;;;;;;;;5033726;28;20487;-76
2021/10/23 06:03:03;;;;;;;42.90;21.95;;;;;;;;;;5032548;28;20676;-75
2021/10/23 06:05:29;;;;;;;34.75;21.20;;;;;;;;;;5033781;28;20182;-76
2021/10/23 06:07:56;;;;;;;37.08;19.83;;;;;;;;;;5033729;28;20231;-78
2021/10/23 06:10:22;;;;;;;36.80;20.30;;;;;;;;;;5034906;28;20170;-76
2021/10/23 06:12:48;;;;;;;31.08;19.40;;;;;;;;;;5034312;28;20198;-77
2021/10/23 06:15:14;;;;;;;35.03;20.63;;;;;;;;;;5034869;28;20228;-77
2021/10/23 06:17:41;;;;;;;39.35;21.38;;;;;;;;;;5034460;28;20186;-76
2021/10/23 06:20:07;;;;;;;39.08;21.48;;;;;;;;;;5034454;28;20169;-75
2021/10/23 06:22:33;;;;;;;34.13;19.65;;;;;;;;;;5034006;28;20206;-76
2021/10/23 06:24:59;;;;;;;35.25;20.08;;;;;;;;;;5034360;28;20258;-77
2021/10/23 06:27:25;;;;;;;45.05;22.73;;;;;;;;;;5032905;28;20184;-77
2021/10/23 06:29:51;;;;;;;42.85;21.58;;;;;;;;;;5034156;28;20257;-76
2021/10/23 06:32:17;;;;;;;34.30;18.90;;;;;;;;;;5033686;28;20198;-76
2021/10/23 06:34:43;;;;;;;41.25;21.00;;;;;;;;;;5033991;28;20170;-77
2021/10/23 06:37:10;;;;;;;39.33;20.90;;;;;;;;;;5034201;28;20662;-77
2021/10/23 06:39:36;;;;;;;40.90;19.60;;;;;;;;;;5033936;28;20413;-76
2021/10/23 06:42:03;;;;;;;38.10;20.20;;;;;;;;;;5033402;28;20301;-77
2021/10/23 06:44:29;;;;;;;36.88;20.98;;;;;;;;;;5032663;28;20189;-76
2021/10/23 06:46:55;;;;;;;41.90;20.15;;;;;;;;;;5033984;28;20201;-76
2021/10/23 06:49:21;;;;;;;41.47;22.67;;;;;;;;;;5033924;28;20182;-77
2021/10/23 06:51:47;;;;;;;48.47;21.20;;;;;;;;;;5033530;28;20448;-76
2021/10/23 06:54:13;;;;;;;37.35;21.02;;;;;;;;;;5034090;28;20412;-77
2021/10/23 06:56:39;;;;;;;39.03;19.37;;;;;;;;;;5033729;28;20182;-77
2021/10/23 06:59:05;;;;;;;39.42;20.55;;;;;;;;;;5033698;28;20409;-77
2021/10/23 07:01:31;;;;;;;35.47;21.00;;;;;;;;;;5033086;28;20220;-76
2021/10/23 07:03:57;;;;;;;35.20;20.48;;;;;;;;;;5033850;28;20192;-77
2021/10/23 07:06:23;;;;;;;38.80;20.75;;;;;;;;;;5033405;28;20224;-76
2021/10/23 07:08:49;;;;;;;38.93;20.03;;;;;;;;;;5033549;28;20186;-76
2021/10/23 07:11:16;;;;;;;43.53;20.73;;;;;;;;;;5033072;28;20449;-76
2021/10/23 07:13:42;;;;;;;30.10;18.42;;;;;;;;;;5032913;28;20228;-77
2021/10/23 07:16:08;;;;;;;31.60;18.50;;;;;;;;;;5033221;28;20270;-76
2021/10/23 07:18:34;;;;;;;40.83;21.10;;;;;;;;;;5033422;28;20725;-76
2021/10/23 07:21:00;;;;;;;35.25;20.60;;;;;;;;;;5032044;28;20591;-77
2021/10/23 07:23:26;;;;;;;39.22;21.23;;;;;;;;;;5033480;28;20220;-77
2021/10/23 07:25:52;;;;;;;39.13;21.17;;;;;;;;;;5033480;28;20174;-77
2021/10/23 07:28:18;;;;;;;40.22;21.20;;;;;;;;;;5033403;28;20490;-77
2021/10/23 07:30:44;;;;;;;34.40;22.23;;;;;;;;;;5033375;28;20185;-77
2021/10/23 07:33:10;;;;;;;38.97;23.60;;;;;;;;;;5031775;28;20809;-76
2021/10/23 07:35:36;;;;;;;41.70;23.75;;;;;;;;;;5032025;28;20413;-76
2021/10/23 07:38:02;;;;;;;40.70;22.80;;;;;;;;;;5032045;28;20189;-77
2021/10/23 07:40:28;;;;;;;45.58;23.20;;;;;;;;;;5032971;28;20188;-74
2021/10/23 07:42:54;;;;;;;32.75;21.23;;;;;;;;;;5032678;28;20569;-75
2021/10/23 07:45:20;;;;;;;35.50;21.70;;;;;;;;;;5033018;28;20181;-75
2021/10/23 07:47:46;;;;;;;35.38;22.63;;;;;;;;;;5031718;28;20405;-74
2021/10/23 07:50:12;;;;;;;36.45;21.95;;;;;;;;;;5033102;28;20627;-74
2021/10/23 07:52:39;;;;;;;39.70;23.50;;;;;;;;;;5032467;28;20190;-77
2021/10/23 07:55:06;;;;;;;38.55;23.80;;;;;;;;;;5033139;28;20542;-75
2021/10/23 07:57:32;;;;;;;35.88;21.15;;;;;;;;;;5033098;28;20210;-77
2021/10/23 07:59:58;;;;;;;34.10;20.53;;;;;;;;;;5033094;28;20201;-75
2021/10/23 08:02:24;;;;;;;40.37;23.30;;;;;;;;;;5032576;28;20460;-77
2021/10/23 08:04:51;;;;;;;43.70;26.20;;;;;;;;;;5032861;28;20424;-78
2021/10/23 08:07:17;;;;;;;35.58;21.35;;;;;;;;;;5033165;28;20220;-76
2021/10/23 08:09:43;;;;;;;29.17;18.80;;;;;;;;;;5033021;28;20205;-77
2021/10/23 08:12:09;;;;;;;32.97;19.15;;;;;;;;;;5032610;28;20206;-76
2021/10/23 08:14:36;;;;;;;30.17;18.15;;;;;;;;;;5031723;28;20182;-78
2021/10/23 08:17:03;;;;;;;24.17;17.23;;;;;;;;;;5031651;28;20261;-77
2021/10/23 08:19:29;;;;;;;23.45;14.63;;;;;;;;;;5032892;28;20185;-78
2021/10/23 08:21:55;;;;;;;27.42;15.48;;;;;;;;;;5032442;28;20297;-77
2021/10/23 08:24:21;;;;;;;26.10;17.15;;;;;;;;;;5032743;28;20674;-77
2021/10/23 08:26:47;;;;;;;21.98;15.20;;;;;;;;;;5035523;28;20209;-77
2021/10/23 08:29:14;;;;;;;20.63;15.75;;;;;;;;;;5036537;28;20174;-77
2021/10/23 08:31:40;;;;;;;23.15;16.15;;;;;;;;;;5036237;28;20656;-76
2021/10/23 08:34:06;;;;;;;24.08;14.15;;;;;;;;;;5036655;28;20209;-77
2021/10/23 08:36:32;;;;;;;23.80;14.23;;;;;;;;;;5035212;28;20224;-77
2021/10/23 08:38:59;;;;;;;20.57;13.20;;;;;;;;;;5034925;28;20186;-76
2021/10/23 08:41:25;;;;;;;20.02;12.82;;;;;;;;;;5035813;28;20492;-78
2021/10/23 08:43:51;;;;;;;20.48;13.02;;;;;;;;;;5036237;28;20208;-77
2021/10/23 08:46:22;;;;;;;21.77;12.82;;;;;;;;;;5034944;28;20647;-77
2021/10/23 08:48:51;;;;;;;13.88;9.90;;;;;;;;;;5036212;28;20635;-76
2021/10/23 08:51:17;;;;;;;13.80;9.00;;;;;;;;;;5035583;28;20186;-77
2021/10/23 08:53:44;;;;;;;15.77;10.00;;;;;;;;;;5036165;28;20558;-77
2021/10/23 08:56:11;;;;;;;13.82;10.82;;;;;;;;;;5036152;28;20178;-77
2021/10/23 08:58:37;;;;;;;16.30;11.02;;;;;;;;;;5036282;28;20201;-76
2021/10/23 09:01:04;;;;;;;11.63;8.52;;;;;;;;;;5035506;28;20542;-78
2021/10/23 09:03:30;;;;;;;14.05;8.55;;;;;;;;;;5035948;28;20553;-77
2021/10/23 09:05:56;;;;;;;18.77;9.05;;;;;;;;;;5035968;28;20178;-77
2021/10/23 09:08:23;;;;;;;12.48;8.75;;;;;;;;;;5036035;28;20185;-77
2021/10/23 09:10:51;;;;;;;10.18;7.90;;;;;;;;;;5035843;28;20223;-78
2021/10/23 09:13:31;;;;;;;9.15;7.35;;;;;;;;;;5035449;28;20190;-78
2021/10/23 09:15:57;;;;;;;13.00;7.25;;;;;;;;;;5035750;28;20181;-77
2021/10/23 09:18:42;;;;;;;13.15;8.57;;;;;;;;;;5035595;28;20198;-78
2021/10/23 09:21:20;;;;;;;10.50;8.50;;;;;;;;;;5035188;28;20206;-77
2021/10/23 09:23:47;;;;;;;11.45;7.22;;;;;;;;;;5035557;28;20698;-78
2021/10/23 09:26:29;;;;;;;15.15;8.45;;;;;;;;;;5035572;28;20203;-77
2021/10/23 09:29:15;;;;;;;8.45;6.55;;;;;;;;;;5035504;28;20177;-76
2021/10/23 09:31:44;;;;;;;10.88;7.18;;;;;;;;;;5034984;28;20694;-76
2021/10/23 09:34:10;;;;;;;16.67;9.07;;;;;;;;;;5035405;28;20178;-77
2021/10/23 09:36:42;;;;;;;14.48;7.32;;;;;;;;;;5034776;28;20189;-76
2021/10/23 09:39:09;;;;;;;11.13;6.68;;;;;;;;;;5035060;28;20249;-78
2021/10/23 09:41:35;;;;;;;11.88;6.50;;;;;;;;;;5034605;28;20814;-77
2021/10/23 09:44:16;;;;;;;12.48;5.95;;;;;;;;;;5035464;28;20178;-77
2021/10/23 09:46:55;;;;;;;17.15;9.13;;;;;;;;;;5035178;28;20200;-77
2021/10/23 09:49:22;;;;;;;14.85;7.15;;;;;;;;;;5033845;28;20181;-78
2021/10/23 09:52:01;;;;;;;9.77;6.72;;;;;;;;;;5034588;28;20666;-77
2021/10/23 09:54:27;;;;;;;11.43;6.50;;;;;;;;;;5035238;28;20666;-77
2021/10/23 09:56:53;;;;;;;10.95;6.40;;;;;;;;;;5035282;28;20601;-75
2021/10/23 09:59:29;;;;;;;13.23;6.67;;;;;;;;;;5035143;28;20192;-76
2021/10/23 10:02:00;;;;;;;12.32;5.88;;;;;;;;;;5034507;28;20464;-76
2021/10/23 10:04:29;;;;;;;11.35;5.65;;;;;;;;;;5034952;28;20236;-78
2021/10/23 10:06:55;;;;;;;11.32;5.78;;;;;;;;;;5034878;28;20253;-75
2021/10/23 10:09:21;;;;;;;8.27;5.03;;;;;;;;;;5034738;28;20595;-76
2021/10/23 10:11:48;;;;;;;9.15;4.97;;;;;;;;;;5034196;28;20444;-77
2021/10/23 10:14:15;;;;;;;6.57;4.88;;;;;;;;;;5034877;28;20182;-78
2021/10/23 10:16:42;;;;;;;10.20;5.68;;;;;;;;;;5034688;28;20189;-76
2021/10/23 10:19:08;;;;;;;12.83;4.90;;;;;;;;;;5034507;28;20527;-78
2021/10/23 10:21:35;;;;;;;9.85;4.72;;;;;;;;;;5032817;28;20498;-77
2021/10/23 10:24:01;;;;;;;7.78;4.97;;;;;;;;;;5034461;28;20674;-76
2021/10/23 10:26:27;;;;;;;5.40;4.30;;;;;;;;;;5034484;28;20554;-76
2021/10/23 10:29:13;;;;;;;10.93;4.60;;;;;;;;;;5034380;28;20813;-76
2021/10/23 10:32:01;;;;;;;9.10;4.75;;;;;;;;;;5033914;28;20436;-77
2021/10/23 10:39:57;;;;;;;9.65;4.60;;;;;;;;;;5034376;28;20172;-78
2021/10/23 10:45:38;;;;;;;11.27;5.20;;;;;;;;;;5031838;28;20185;-78
2021/10/23 10:48:14;;;;;;;7.97;5.18;;;;;;;;;;5031627;28;20502;-77
2021/10/23 10:50:48;;;;;;;10.10;6.00;;;;;;;;;;5033004;28;20240;-80
2021/10/23 10:53:16;;;;;;;11.30;6.15;;;;;;;;;;5033742;28;20503;-81
2021/10/23 10:55:44;;;;;;;8.05;5.20;;;;;;;;;;5033934;28;20260;-79
2021/10/23 10:58:11;;;;;;;8.63;4.17;;;;;;;;;;5033852;28;20186;-80
2021/10/23 11:00:46;;;;;;;8.20;6.40;;;;;;;;;;5033590;28;20417;-79
2021/10/23 11:03:31;;;;;;;8.20;6.87;;;;;;;;;;5033620;28;20478;-80
2021/10/23 11:05:58;;;;;;;13.10;7.13;;;;;;;;;;5033688;28;20901;-76
2021/10/23 11:08:24;;;;;;;9.03;6.30;;;;;;;;;;5032794;28;20433;-80
2021/10/23 11:10:53;;;;;;;21.33;9.13;;;;;;;;;;5033794;28;20444;-79
2021/10/23 11:13:30;;;;;;;15.40;8.27;;;;;;;;;;5033472;28;20510;-81
2021/10/23 11:15:56;;;;;;;15.60;6.80;;;;;;;;;;5033750;28;20401;-79
2021/10/23 11:18:22;;;;;;;11.60;7.90;;;;;;;;;;5033344;28;20452;-78
2021/10/23 11:20:50;;;;;;;12.03;7.47;;;;;;;;;;5033600;28;20551;-78
2021/10/23 11:23:21;;;;;;;37.87;30.50;;;;;;;;;;5033160;28;20425;-79
2021/10/23 11:25:47;;;;;;;11.20;5.60;;;;;;;;;;5015921;28;20500;-77
2021/10/23 11:28:13;;;;;;;9.50;6.00;;;;;;;;;;5033303;28;20445;-80
2021/10/23 11:30:43;;;;;;;10.27;6.57;;;;;;;;;;5032176;28;20487;-78
2021/10/23 11:33:12;;;;;;;12.60;5.50;;;;;;;;;;5033007;28;20436;-77
2021/10/23 11:35:38;;;;;;;9.60;6.37;;;;;;;;;;5032132;28;20811;-81
2021/10/23 11:38:05;;;;;;;8.90;6.50;;;;;;;;;;5033192;28;20417;-79
2021/10/23 11:40:31;;;;;;;9.00;5.40;;;;;;;;;;5031625;28;20416;-80
2021/10/23 11:42:57;;;;;;;11.27;5.53;;;;;;;;;;5032702;28;20425;-80
2021/10/23 11:45:25;;;;;;;12.37;6.37;;;;;;;;;;5031794;28;20766;-78
2021/10/23 11:47:54;;;;;;;6.73;5.43;;;;;;;;;;5033114;28;20874;-80
2021/10/23 11:50:40;;;;;;;13.03;5.33;;;;;;;;;;5032858;28;20424;-80
2021/10/23 11:53:21;;;;;;;8.80;5.77;;;;;;;;;;5032694;28;20455;-79
2021/10/23 11:55:48;;;;;;;11.83;5.53;;;;;;;;;;5033153;28;20415;-79
2021/10/23 11:58:15;;;;;;;12.93;5.93;;;;;;;;;;5031957;28;20910;-78
2021/10/23 12:00:47;;;;;;;6.83;4.93;;;;;;;;;;5033969;28;20987;-81
2021/10/23 12:03:14;;;;;;;13.23;5.80;;;;;;;;;;5036752;28;20486;-79
2021/10/23 12:05:50;;;;;;;10.50;5.47;;;;;;;;;;5037031;28;20416;-78
2021/10/23 12:08:19;;;;;;;10.17;5.67;;;;;;;;;;5035818;28;20419;-81
2021/10/23 12:10:57;;;;;;;8.37;5.00;;;;;;;;;;5036902;28;20405;-80
2021/10/23 12:13:23;;;;;;;9.27;5.10;;;;;;;;;;5036791;28;20424;-79
2021/10/23 12:16:06;;;;;;;10.37;5.13;;;;;;;;;;5036912;28;20502;-81
2021/10/23 12:18:36;;;;;;;8.30;4.90;;;;;;;;;;5036752;28;20414;-81
2021/10/23 12:21:19;;;;;;;10.00;6.37;;;;;;;;;;5036711;28;20452;-78
2021/10/23 12:23:52;;;;;;;10.60;6.33;;;;;;;;;;5036800;28;20846;-80
2021/10/23 12:26:28;;;;;;;8.83;5.63;;;;;;;;;;5036845;28;20423;-79
2021/10/23 12:29:11;;;;;;;8.37;5.00;;;;;;;;;;5036787;28;20412;-78
2021/10/23 12:31:55;;;;;;;7.30;4.20;;;;;;;;;;5036125;28;20562;-79
2021/10/23 12:34:21;;;;;;;6.93;3.53;;;;;;;;;;5036507;28;20499;-79
2021/10/23 12:36:54;;;;;;;8.30;4.07;;;;;;;;;;5036276;28;20417;-80
2021/10/23 12:39:22;;;;;;;7.53;4.70;;;;;;;;;;5036530;28;20482;-80
2021/10/23 12:41:48;;;;;;;5.90;3.30;;;;;;;;;;5034586;28;20976;-77
2021/10/23 12:44:18;;;;;;;8.57;4.23;;;;;;;;;;5035163;28;20466;-78
2021/10/23 12:46:44;;;;;;;9.90;6.80;;;;;;;;;;5036208;28;20416;-80
2021/10/23 12:49:10;;;;;;;7.50;3.93;;;;;;;;;;5036148;28;20411;-79
2021/10/23 12:51:36;;;;;;;9.03;3.80;;;;;;;;;;5035731;28;20807;-77
2021/10/23 12:54:02;;;;;;;5.73;3.43;;;;;;;;;;5036068;28;20416;-78
2021/10/23 12:56:29;;;;;;;9.93;6.53;;;;;;;;;;5034849;28;20913;-77
2021/10/23 12:58:54;;;;;;;6.30;3.87;;;;;;;;;;5036016;28;20797;-77
2021/10/23 13:01:22;;;;;;;9.57;8.57;;;;;;;;;;5035524;28;20554;-80
2021/10/23 13:03:48;;;;;;;6.60;3.37;;;;;;;;;;5036175;28;20492;-78
2021/10/23 13:06:14;;;;;;;5.33;3.63;;;;;;;;;;5036015;28;20397;-77
2021/10/23 13:08:41;;;;;;;7.97;4.27;;;;;;;;;;5036187;28;20464;-76
2021/10/23 13:11:07;;;;;;;19.67;9.50;;;;;;;;;;5035213;28;20417;-78
2021/10/23 13:13:35;;;;;;;6.90;3.10;;;;;;;;;;5036124;28;20421;-78
2021/10/23 13:16:02;;;;;;;8.63;3.70;;;;;;;;;;5035662;28;20413;-77
2021/10/23 13:18:34;;;;;;;4.80;3.93;;;;;;;;;;5035796;28;20524;-80
2021/10/23 13:21:00;;;;;;;8.70;3.30;;;;;;;;;;5035585;28;20794;-78
2021/10/23 13:23:26;;;;;;;5.87;3.10;;;;;;;;;;5035477;28;20967;-76
2021/10/23 13:25:53;;;;;;;3.37;2.60;;;;;;;;;;5039919;28;20446;-78
2021/10/23 13:28:19;;;;;;;3.40;2.60;;;;;;;;;;5041755;28;20470;-79
2021/10/23 13:30:45;;;;;;;11.83;3.33;;;;;;;;;;5049039;28;20494;-78
2021/10/23 13:33:11;;;;;;;6.90;2.37;;;;;;;;;;5045635;28;20528;-79
2021/10/23 13:35:37;;;;;;;7.40;2.90;;;;;;;;;;5045527;28;20419;-78
2021/10/23 13:38:03;;;;;;;6.07;3.00;;;;;;;;;;5038262;28;20451;-81
2021/10/23 13:40:30;;;;;;;8.20;2.70;;;;;;;;;;5035323;28;20420;-81
2021/10/23 13:42:56;;;;;;;6.37;2.80;;;;;;;;;;5035010;28;20408;-78
2021/10/23 13:45:22;;;;;;;4.83;3.67;;;;;;;;;;5034991;28;20451;-81
2021/10/23 13:47:48;;;;;;;6.53;3.60;;;;;;;;;;5035144;28;20451;-81
2021/10/23 13:50:14;;;;;;;9.50;3.77;;;;;;;;;;5035258;28;20409;-81
2021/10/23 13:52:41;;;;;;;6.63;2.87;;;;;;;;;;5034403;28;20440;-79
2021/10/23 13:55:07;;;;;;;7.10;3.43;;;;;;;;;;5035131;28;20417;-78
2021/10/23 13:57:33;;;;;;;9.40;3.80;;;;;;;;;;5034880;28;20421;-78
2021/10/23 13:59:59;;;;;;;9.87;3.10;;;;;;;;;;5033587;28;20936;-81
2021/10/23 14:02:25;;;;;;;3.90;2.43;;;;;;;;;;5034549;28;20464;-80
2021/10/23 14:04:51;;;;;;;6.40;3.33;;;;;;;;;;5035271;28;20409;-77
2021/10/23 14:07:17;;;;;;;6.13;2.93;;;;;;;;;;5034856;28;20424;-78
2021/10/23 14:09:43;;;;;;;5.63;3.63;;;;;;;;;;5034752;28;20413;-78
2021/10/23 14:12:09;;;;;;;6.97;2.80;;;;;;;;;;5034347;28;20838;-78
2021/10/23 14:14:35;;;;;;;11.07;3.50;;;;;;;;;;5034769;28;20417;-78
2021/10/23 14:17:01;;;;;;;5.00;3.50;;;;;;;;;;5033448;28;20421;-80
2021/10/23 14:19:27;;;;;;;4.57;3.20;;;;;;;;;;5034544;28;20440;-80
2021/10/23 14:21:53;;;;;;;10.50;3.30;;;;;;;;;;5034103;28;20452;-79
2021/10/23 14:24:19;;;;;;;9.63;3.17;;;;;;;;;;5033005;28;20417;-78
2021/10/23 14:26:48;;;;;;;3.97;2.13;;;;;;;;;;5034695;28;20463;-78
2021/10/23 14:29:14;;;;;;;11.50;2.97;;;;;;;;;;5034583;28;20405;-77
2021/10/23 14:31:40;;;;;;;10.80;5.37;;;;;;;;;;5033969;28;20919;-80
2021/10/23 14:34:06;;;;;;;6.33;2.33;;;;;;;;;;5034342;28;20388;-77
2021/10/23 14:36:33;;;;;;;4.97;2.63;;;;;;;;;;5034274;28;20413;-78